KLFI/LFI METAR and TAF weather

Enter ICAO airport designator
Station Type Date Time Source
KLFI METAR 2020/07/04 07:56 UTC NOAA

KLFI 040756Z AUTO 27005KT 10SM FEW075 SCT090 25/22 A2985 RMK AO2 SLP114 T02520223 $


Station Type Date Time Source
KLFI Decoded METAR 2020/07/04 07:56 UTC NOAA

Langley Air Force Base, VA, United States (KLFI) 37-05N 076-21W 6M
Jul 04, 2020 - 03:56 AM EDT / 2020.07.04 0756 UTC
Wind: from the W (270 degrees) at 6 MPH (5 KT):0
Visibility: 10 mile(s):0
Sky conditions: partly cloudy
Temperature: 77.4 F (25.2 C)
Dew Point: 72.1 F (22.3 C)
Relative Humidity: 83%
Pressure (altimeter): 29.85 in. Hg (1010 hPa)
ob: KLFI 040756Z AUTO 27005KT 10SM FEW075 SCT090 25/22 A2985 RMK AO2 SLP114 T02520223
cycle: 8

Station Type Date Time Source
KLFI TAF 2020/07/02 21:57 UTC NOAA

TAF
AMD KLFI 022150Z 0221/0323 02009KT 9999 SCT040 QNH2985INS TX30/0221Z TN22/0304Z LAST NO
AMDS AFT 0221 NEXT 0409

Example: see airport list